Time;durP1;ratioP1;P1;durP2;ratioP2;P2;SDS_P1;SDS_P2;PMS_P1;PMS_P2;Temp;Humidity;BMP_temperature;BMP_pressure;BME280_temperature;BME280_humidity;BME280_pressure;Samples;Min_cycle;Max_cycle;Signal;HPM_P1;HPM_P2
2022/11/20 00:02:25;;;;;;;4.15;1.67;;;9.10;70.70;;;;;;4981088;28;20173;-79
2022/11/20 00:05:09;;;;;;;3.70;1.70;;;9.10;70.70;;;;;;4976386;28;20101;-79
2022/11/20 00:07:54;;;;;;;2.28;1.48;;;9.10;70.80;;;;;;4987297;28;20053;-79
2022/11/20 00:10:40;;;;;;;3.17;2.08;;;9.10;70.80;;;;;;4984367;28;20081;-77
2022/11/20 00:13:24;;;;;;;2.97;1.67;;;9.10;70.80;;;;;;4986276;28;20635;-78
2022/11/20 00:16:10;;;;;;;3.05;1.73;;;9.10;70.80;;;;;;4979699;28;20076;-79
2022/11/20 00:18:55;;;;;;;3.53;1.42;;;9.10;70.80;;;;;;4981571;28;20098;-80
2022/11/20 00:21:39;;;;;;;3.58;1.55;;;9.10;70.80;;;;;;4983436;28;20072;-79
2022/11/20 00:24:23;;;;;;;3.38;1.50;;;9.10;70.90;;;;;;4988143;28;20048;-80
2022/11/20 00:27:08;;;;;;;3.55;1.30;;;9.10;70.90;;;;;;4985657;28;20092;-78
2022/11/20 00:29:53;;;;;;;4.32;1.67;;;9.20;71.10;;;;;;4982706;28;20050;-78
2022/11/20 00:32:37;;;;;;;2.40;1.63;;;9.20;71.10;;;;;;4975874;28;20617;-78
2022/11/20 00:35:22;;;;;;;2.75;1.52;;;9.20;71.10;;;;;;4986316;28;20033;-79
2022/11/20 00:38:06;;;;;;;2.97;1.90;;;9.20;71.10;;;;;;4985521;28;20049;-78
2022/11/20 00:40:56;;;;;;;4.45;1.60;;;9.20;71.10;;;;;;4985856;28;20402;-78
2022/11/20 00:43:42;;;;;;;3.15;1.58;;;9.20;71.10;;;;;;4983024;28;20041;-79
2022/11/20 00:46:27;;;;;;;4.13;1.70;;;9.20;71.60;;;;;;4984061;28;20048;-79
2022/11/20 00:49:12;;;;;;;2.78;1.88;;;9.20;71.20;;;;;;4983284;28;20057;-79
2022/11/20 00:51:56;;;;;;;1.75;1.55;;;9.20;71.10;;;;;;4981468;28;20041;-78
2022/11/20 00:54:41;;;;;;;2.90;1.60;;;9.30;71.30;;;;;;4985564;28;20069;-79
2022/11/20 00:57:26;;;;;;;3.40;1.80;;;9.20;71.10;;;;;;4994383;28;20041;-78
2022/11/20 01:00:11;;;;;;;3.05;1.33;;;9.30;71.40;;;;;;4987174;28;20406;-78
2022/11/20 01:02:56;;;;;;;5.00;1.77;;;9.30;71.40;;;;;;4993793;28;20077;-79
2022/11/20 01:05:40;;;;;;;1.95;1.55;;;9.30;71.40;;;;;;5007724;28;20093;-78
2022/11/20 01:08:28;;;;;;;3.65;1.35;;;9.30;71.40;;;;;;4990277;28;20081;-78
2022/11/20 01:11:15;;;;;;;2.22;1.30;;;9.30;71.50;;;;;;5005006;28;20045;-78
2022/11/20 01:14:02;;;;;;;2.63;1.48;;;9.30;72.00;;;;;;4991489;28;20356;-79
2022/11/20 01:16:49;;;;;;;1.90;1.38;;;9.30;71.50;;;;;;4971296;28;20406;-78
2022/11/20 01:19:34;;;;;;;3.05;1.52;;;9.30;72.00;;;;;;4989733;28;20100;-78
2022/11/20 01:22:19;;;;;;;1.88;1.05;;;9.30;71.60;;;;;;4990104;28;20076;-77
2022/11/20 01:25:04;;;;;;;2.60;1.73;;;9.30;71.60;;;;;;4992115;28;20065;-77
2022/11/20 01:27:48;;;;;;;2.42;1.27;;;9.30;71.60;;;;;;4991767;28;20053;-77
2022/11/20 01:30:33;;;;;;;1.92;1.08;;;9.30;71.60;;;;;;4984964;28;20096;-77
2022/11/20 01:33:17;;;;;;;2.55;1.20;;;9.40;71.80;;;;;;4989588;28;20033;-76
2022/11/20 01:36:06;;;;;;;3.08;1.13;;;9.40;71.80;;;;;;4993205;28;20521;-76
2022/11/20 01:38:56;;;;;;;1.63;1.20;;;9.40;71.80;;;;;;4978620;28;20105;-77
2022/11/20 01:45:00;;;;;;;1.45;1.00;;;9.50;72.00;;;;;;4980915;28;20126;-77
2022/11/20 01:47:46;;;;;;;1.92;1.10;;;9.50;72.00;;;;;;4979446;28;20542;-76
2022/11/20 01:50:30;;;;;;;1.83;0.95;;;9.50;71.90;;;;;;4969043;28;20552;-76
2022/11/20 01:53:21;;;;;;;2.85;1.25;;;9.50;71.90;;;;;;4984617;28;20485;-76
2022/11/20 01:56:11;;;;;;;0.95;0.70;;;9.50;71.90;;;;;;4986202;28;20180;-77
2022/11/20 01:59:00;;;;;;;1.83;0.70;;;9.60;72.20;;;;;;4985783;28;20413;-77
2022/11/20 02:01:45;;;;;;;1.20;0.65;;;9.60;72.10;;;;;;4984351;28;20108;-80
2022/11/20 02:04:30;;;;;;;1.45;0.85;;;9.60;72.10;;;;;;4986079;28;20054;-79
2022/11/20 02:07:15;;;;;;;1.05;0.70;;;9.60;72.20;;;;;;4987389;28;20056;-77
2022/11/20 02:10:00;;;;;;;1.75;0.82;;;9.60;72.20;;;;;;4984146;28;20088;-78
2022/11/20 02:15:48;;;;;;;1.85;0.70;;;9.60;72.20;;;;;;4977368;28;20045;-78
2022/11/20 02:18:33;;;;;;;2.35;0.88;;;9.70;72.40;;;;;;4983720;28;20048;-77
2022/11/20 02:21:45;;;;;;;1.30;0.50;;;9.70;72.40;;;;;;4983674;28;20065;-77
2022/11/20 02:24:29;;;;;;;2.25;0.90;;;9.70;72.50;;;;;;4982930;28;20154;-77
2022/11/20 02:27:16;;;;;;;0.80;0.60;;;9.70;72.40;;;;;;4982187;28;20120;-77
2022/11/20 02:30:03;;;;;;;2.03;0.80;;;9.70;72.40;;;;;;4968122;28;20060;-77
2022/11/20 02:32:47;;;;;;;1.58;1.40;;;9.70;72.40;;;;;;4982340;28;20100;-77
2022/11/20 02:35:32;;;;;;;0.40;0.40;;;9.80;72.60;;;;;;4976873;28;20097;-77
2022/11/20 02:38:17;;;;;;;0.73;0.43;;;9.80;72.60;;;;;;4958739;28;20101;-77
2022/11/20 02:41:02;;;;;;;0.93;0.50;;;9.80;72.60;;;;;;4981706;28;20077;-77
2022/11/20 02:43:46;;;;;;;1.30;1.05;;;9.90;72.80;;;;;;4973155;28;20037;-77
2022/11/20 02:46:32;;;;;;;0.85;0.57;;;9.90;72.80;;;;;;4974826;28;20085;-77
2022/11/20 02:49:17;;;;;;;1.98;0.50;;;9.90;72.80;;;;;;4971670;28;20053;-77
2022/11/20 02:52:01;;;;;;;1.45;0.60;;;9.90;72.80;;;;;;4984346;28;20042;-78
2022/11/20 02:54:46;;;;;;;0.93;0.50;;;9.90;72.80;;;;;;4989823;28;20092;-78
2022/11/20 02:57:30;;;;;;;2.80;0.80;;;9.90;72.90;;;;;;4988985;28;20045;-79
2022/11/20 03:00:15;;;;;;;1.05;0.50;;;10.00;73.10;;;;;;4991787;28;20049;-79
2022/11/20 03:02:59;;;;;;;0.50;0.30;;;9.90;73.00;;;;;;4995295;28;20134;-80
2022/11/20 03:05:44;;;;;;;0.82;0.60;;;10.00;73.20;;;;;;4981077;28;20045;-79
2022/11/20 03:08:28;;;;;;;0.75;0.50;;;9.90;73.10;;;;;;4988814;28;20053;-79
2022/11/20 03:11:13;;;;;;;2.10;0.57;;;10.00;73.20;;;;;;4992115;28;20202;-77
2022/11/20 03:13:57;;;;;;;0.60;0.50;;;10.00;73.30;;;;;;4973740;28;20041;-77
2022/11/20 03:16:42;;;;;;;0.63;0.52;;;10.00;73.30;;;;;;4974623;28;20045;-79
2022/11/20 03:19:27;;;;;;;1.38;0.40;;;10.00;73.30;;;;;;4982135;28;20041;-80
2022/11/20 03:22:11;;;;;;;0.32;0.32;;;10.00;73.40;;;;;;4994405;28;20056;-79
2022/11/20 03:24:56;;;;;;;1.25;0.55;;;10.00;73.40;;;;;;4993296;28;20045;-79
2022/11/20 03:27:40;;;;;;;0.30;0.30;;;10.00;73.40;;;;;;4994998;28;20104;-80
2022/11/20 03:30:25;;;;;;;0.90;0.57;;;10.00;73.50;;;;;;4978055;28;20520;-78
2022/11/20 03:33:09;;;;;;;0.57;0.25;;;10.00;73.50;;;;;;4991450;28;20077;-78
2022/11/20 03:35:54;;;;;;;0.82;0.40;;;10.00;73.50;;;;;;4979813;28;20046;-79
2022/11/20 03:38:39;;;;;;;1.55;0.35;;;9.90;73.40;;;;;;4995522;28;20045;-80
2022/11/20 03:41:26;;;;;;;0.30;0.30;;;10.00;73.70;;;;;;4994824;28;20065;-79
2022/11/20 03:44:11;;;;;;;1.98;0.50;;;10.00;73.70;;;;;;4993359;28;20417;-80
2022/11/20 03:46:56;;;;;;;0.90;0.55;;;9.90;73.60;;;;;;4991692;28;20501;-79
2022/11/20 03:49:41;;;;;;;0.50;0.50;;;9.90;73.60;;;;;;4981406;28;20046;-79
2022/11/20 03:52:25;;;;;;;1.15;0.60;;;9.90;73.60;;;;;;4990829;28;20061;-79
2022/11/20 03:55:10;;;;;;;0.52;0.50;;;9.90;73.70;;;;;;4985218;28;20053;-79
2022/11/20 03:57:55;;;;;;;0.68;0.50;;;9.90;73.70;;;;;;4992226;28;20582;-78
2022/11/20 04:00:40;;;;;;;1.20;0.60;;;10.00;73.90;;;;;;4990412;28;20041;-79
2022/11/20 04:03:25;;;;;;;1.42;0.50;;;10.00;73.90;;;;;;4980085;28;20054;-78
2022/11/20 04:06:14;;;;;;;0.85;0.50;;;9.90;73.70;;;;;;4992425;28;20037;-78
2022/11/20 04:08:59;;;;;;;1.65;0.65;;;9.90;73.70;;;;;;4985354;28;20042;-79
2022/11/20 04:11:43;;;;;;;2.17;0.60;;;10.00;73.90;;;;;;4984632;28;20053;-79
2022/11/20 04:14:27;;;;;;;1.38;0.60;;;10.00;73.90;;;;;;4991893;28;20105;-80
2022/11/20 04:17:12;;;;;;;1.95;0.70;;;10.00;74.00;;;;;;4978829;28;20045;-79
2022/11/20 04:19:56;;;;;;;1.35;1.25;;;10.00;73.90;;;;;;4988286;28;20052;-79
2022/11/20 04:22:41;;;;;;;1.15;0.50;;;10.00;73.90;;;;;;4992126;28;20049;-79
2022/11/20 04:25:25;;;;;;;0.52;0.52;;;10.00;73.90;;;;;;4987758;28;20089;-79
2022/11/20 04:28:09;;;;;;;1.08;0.68;;;10.00;74.00;;;;;;4988882;28;20081;-78
2022/11/20 04:30:54;;;;;;;1.33;0.98;;;9.90;73.90;;;;;;4985646;28;20060;-79
2022/11/20 04:33:39;;;;;;;0.82;0.57;;;9.90;73.90;;;;;;4982682;28;20057;-79
2022/11/20 04:36:27;;;;;;;0.75;0.50;;;9.90;73.90;;;;;;4992398;28;20688;-79
2022/11/20 04:39:15;;;;;;;1.15;0.60;;;9.80;73.80;;;;;;4988794;28;20538;-80
2022/11/20 04:45:02;;;;;;;1.48;0.70;;;9.70;73.70;;;;;;4980559;28;20427;-80
2022/11/20 04:47:47;;;;;;;0.65;0.65;;;9.60;73.60;;;;;;4978479;28;20065;-79
2022/11/20 04:50:31;;;;;;;1.10;0.70;;;9.60;73.60;;;;;;4983371;28;20114;-78
2022/11/20 04:53:16;;;;;;;0.90;0.70;;;9.60;73.70;;;;;;4991687;28;20710;-80
2022/11/20 04:56:02;;;;;;;1.05;0.70;;;9.50;73.50;;;;;;5007186;28;20045;-80
2022/11/20 04:58:47;;;;;;;1.17;0.90;;;9.40;73.40;;;;;;4990330;28;20669;-81
2022/11/20 05:01:32;;;;;;;1.55;0.75;;;9.30;73.30;;;;;;4994138;28;20205;-80
2022/11/20 05:04:16;;;;;;;1.13;0.70;;;9.30;73.40;;;;;;4991121;28;20042;-79
2022/11/20 05:07:01;;;;;;;1.92;1.02;;;9.20;73.30;;;;;;4993384;28;20061;-79
2022/11/20 05:09:46;;;;;;;0.85;0.63;;;9.20;73.30;;;;;;4992988;28;20097;-80
2022/11/20 05:12:31;;;;;;;0.95;0.80;;;9.10;73.20;;;;;;4990504;28;20052;-80
2022/11/20 05:15:15;;;;;;;1.30;0.68;;;9.10;73.20;;;;;;4978707;28;20041;-80
2022/11/20 05:18:00;;;;;;;0.95;0.82;;;9.00;73.00;;;;;;4985919;28;20045;-80
2022/11/20 05:20:45;;;;;;;0.75;0.60;;;9.00;73.20;;;;;;4989949;28;20508;-80
2022/11/20 05:23:31;;;;;;;0.63;0.60;;;8.90;73.00;;;;;;4982515;28;20050;-81
2022/11/20 05:26:19;;;;;;;1.38;0.82;;;8.90;73.00;;;;;;4988012;28;20133;-79
2022/11/20 05:29:04;;;;;;;1.30;0.80;;;8.80;72.80;;;;;;4987694;28;20146;-80
2022/11/20 05:31:49;;;;;;;1.60;0.70;;;8.80;72.80;;;;;;4974647;28;20083;-80
2022/11/20 05:34:34;;;;;;;1.10;0.80;;;8.70;72.70;;;;;;4986330;28;20073;-79
2022/11/20 05:37:18;;;;;;;1.10;1.00;;;8.70;72.70;;;;;;4983405;28;20044;-79
2022/11/20 05:40:03;;;;;;;1.25;1.13;;;8.60;72.60;;;;;;4984539;28;20529;-79
2022/11/20 05:42:47;;;;;;;2.53;1.00;;;8.60;72.70;;;;;;4984560;28;20482;-81
2022/11/20 05:45:32;;;;;;;1.27;1.15;;;8.60;72.70;;;;;;4975567;28;20093;-81
2022/11/20 05:48:17;;;;;;;1.80;1.20;;;8.50;72.60;;;;;;4984922;28;20532;-81
2022/11/20 05:51:03;;;;;;;1.15;1.00;;;8.40;72.40;;;;;;4985564;28;20731;-79
2022/11/20 05:53:47;;;;;;;1.75;1.40;;;8.40;72.40;;;;;;4982565;28;20045;-79
2022/11/20 05:56:32;;;;;;;1.00;0.90;;;8.40;72.50;;;;;;4984219;28;20757;-81
2022/11/20 05:59:16;;;;;;;2.85;1.30;;;8.40;72.50;;;;;;4978964;28;20069;-81
2022/11/20 06:02:01;;;;;;;1.25;1.15;;;8.30;72.40;;;;;;4978284;28;20050;-80
2022/11/20 06:04:46;;;;;;;1.83;1.10;;;8.30;72.40;;;;;;4985786;28;20073;-81
2022/11/20 06:07:31;;;;;;;1.83;1.20;;;8.30;72.40;;;;;;4979061;28;20046;-82
2022/11/20 06:10:15;;;;;;;1.77;1.00;;;8.20;72.30;;;;;;4980180;28;20449;-80
2022/11/20 06:13:00;;;;;;;2.38;1.40;;;8.10;72.10;;;;;;4984387;28;20053;-81
2022/11/20 06:15:51;;;;;;;1.17;1.08;;;8.10;72.10;;;;;;4973167;28;20034;-87
2022/11/20 06:18:36;;;;;;;2.78;1.10;;;8.10;72.30;;;;;;4984419;28;20117;-91
2022/11/20 06:21:22;;;;;;;1.42;1.02;;;8.10;72.20;;;;;;4986555;28;20134;-83
2022/11/20 06:24:08;;;;;;;2.25;1.10;;;8.00;72.10;;;;;;4982282;28;20041;-88
2022/11/20 06:26:52;;;;;;;2.53;1.30;;;8.00;72.10;;;;;;4983828;28;20092;-85
2022/11/20 06:29:39;;;;;;;2.83;1.48;;;7.90;72.00;;;;;;4980384;28;20493;-83
2022/11/20 06:32:25;;;;;;;1.88;1.20;;;7.90;72.00;;;;;;4980943;28;20097;-86
2022/11/20 06:35:09;;;;;;;1.50;1.30;;;7.90;72.00;;;;;;4973717;28;20540;-85
2022/11/20 06:37:55;;;;;;;1.27;1.17;;;7.90;72.10;;;;;;4984738;28;20108;-90
2022/11/20 06:40:41;;;;;;;3.10;1.42;;;7.80;71.80;;;;;;4970417;28;20089;-82
2022/11/20 06:43:25;;;;;;;2.33;1.38;;;7.80;71.80;;;;;;4987281;28;20057;-80
2022/11/20 06:46:12;;;;;;;1.85;1.30;;;7.70;71.70;;;;;;4982589;28;20095;-82
2022/11/20 06:48:57;;;;;;;2.15;1.40;;;7.70;71.80;;;;;;4980110;28;20050;-84
2022/11/20 06:51:42;;;;;;;2.30;1.25;;;7.70;71.80;;;;;;4985677;28;20069;-82
2022/11/20 06:54:26;;;;;;;2.10;1.38;;;7.60;71.60;;;;;;4983094;28;20109;-79
2022/11/20 06:57:11;;;;;;;2.00;1.40;;;7.60;71.60;;;;;;4978367;28;20069;-81
2022/11/20 06:59:55;;;;;;;3.17;1.48;;;7.60;71.70;;;;;;4985811;28;20068;-81
2022/11/20 07:02:40;;;;;;;1.42;1.27;;;7.60;71.70;;;;;;4986224;28;20340;-80
2022/11/20 07:05:25;;;;;;;3.10;1.60;;;7.60;71.80;;;;;;4973717;28;20526;-80
2022/11/20 07:08:09;;;;;;;4.72;1.88;;;7.50;71.60;;;;;;4983772;28;20406;-80
2022/11/20 07:11:00;;;;;;;3.13;1.92;;;7.60;71.80;;;;;;4978948;28;20049;-81
2022/11/20 07:13:45;;;;;;;5.20;2.00;;;7.50;71.70;;;;;;4984266;28;20045;-80
2022/11/20 07:16:30;;;;;;;4.03;1.75;;;7.50;71.70;;;;;;4980354;28;20124;-81
2022/11/20 07:19:15;;;;;;;8.80;2.45;;;7.50;71.70;;;;;;4985033;28;20053;-81
2022/11/20 07:21:59;;;;;;;8.32;2.50;;;7.50;71.70;;;;;;4984615;28;20437;-79
2022/11/20 07:24:44;;;;;;;6.85;2.33;;;7.50;71.70;;;;;;4987176;28;20100;-80
2022/11/20 07:27:29;;;;;;;9.65;2.42;;;7.60;71.90;;;;;;4995988;28;20054;-80
2022/11/20 07:30:14;;;;;;;13.00;2.70;;;7.60;71.90;;;;;;4992592;28;20594;-81
2022/11/20 07:32:59;;;;;;;11.43;3.08;;;7.60;71.90;;;;;;4992815;28;20069;-80
2022/11/20 07:35:44;;;;;;;8.18;3.25;;;7.60;71.90;;;;;;4990942;28;20553;-82
2022/11/20 07:38:29;;;;;;;14.30;3.13;;;7.60;71.90;;;;;;4991271;28;20037;-80
2022/11/20 07:41:14;;;;;;;6.97;3.45;;;7.70;72.10;;;;;;4989301;28;20046;-81
2022/11/20 07:43:59;;;;;;;13.30;3.53;;;7.70;72.10;;;;;;4986996;28;20436;-84
2022/11/20 07:46:43;;;;;;;9.05;2.58;;;7.70;72.10;;;;;;4985330;28;20089;-79
2022/11/20 07:49:28;;;;;;;15.18;3.47;;;7.80;72.30;;;;;;4991454;28;20061;-79
2022/11/20 07:52:12;;;;;;;9.43;3.15;;;7.70;72.10;;;;;;4986346;28;20133;-80
2022/11/20 07:54:57;;;;;;;12.25;2.42;;;7.80;72.20;;;;;;4972828;28;20091;-82
2022/11/20 07:57:41;;;;;;;7.07;2.38;;;7.80;72.20;;;;;;4985076;28;20045;-83
2022/11/20 08:00:27;;;;;;;9.77;2.35;;;7.80;72.20;;;;;;4983378;28;20443;-84
2022/11/20 08:03:11;;;;;;;7.63;3.17;;;7.80;72.20;;;;;;4982740;28;20730;-84
2022/11/20 08:06:01;;;;;;;8.63;2.80;;;7.80;72.20;;;;;;4985532;28;20422;-86
2022/11/20 08:08:45;;;;;;;9.35;2.10;;;7.80;72.20;;;;;;4983891;28;20062;-92
2022/11/20 08:14:32;;;;;;;9.52;2.35;;;7.70;72.10;;;;;;4978106;28;20045;-79
2022/11/20 08:17:17;;;;;;;8.50;3.03;;;7.70;72.10;;;;;;4985336;28;20104;-81
2022/11/20 08:20:02;;;;;;;6.50;2.42;;;7.60;71.90;;;;;;4984087;28;20046;-81
2022/11/20 08:22:46;;;;;;;11.73;3.08;;;7.60;71.90;;;;;;4985656;28;20046;-79
2022/11/20 08:25:32;;;;;;;8.18;2.75;;;7.60;71.90;;;;;;4983442;28;20045;-83
2022/11/20 08:28:17;;;;;;;8.27;2.92;;;7.60;71.90;;;;;;4985869;28;20048;-83
2022/11/20 08:31:02;;;;;;;9.85;2.30;;;7.60;71.90;;;;;;4985743;28;20509;-85
2022/11/20 08:33:47;;;;;;;8.40;3.10;;;7.50;71.70;;;;;;4976984;28;20042;-81
2022/11/20 08:36:34;;;;;;;6.72;2.47;;;7.50;71.80;;;;;;4987301;28;20329;-81
2022/11/20 08:39:18;;;;;;;7.70;3.33;;;7.50;71.70;;;;;;4985864;28;20417;-82
2022/11/20 08:42:07;;;;;;;8.25;3.03;;;7.50;71.70;;;;;;4979077;28;20069;-83
2022/11/20 08:44:52;;;;;;;7.97;2.72;;;7.50;71.70;;;;;;4977901;28;20117;-84
2022/11/20 08:47:36;;;;;;;7.50;3.10;;;7.40;71.50;;;;;;4985952;28;20129;-82
2022/11/20 08:50:21;;;;;;;8.00;2.90;;;7.40;71.50;;;;;;4983003;28;20067;-81
2022/11/20 08:53:05;;;;;;;6.10;2.92;;;7.40;71.50;;;;;;4980254;28;20429;-84
2022/11/20 08:55:50;;;;;;;6.05;3.45;;;7.40;71.50;;;;;;4986429;28;20552;-86
2022/11/20 08:58:35;;;;;;;7.03;3.22;;;7.40;71.40;;;;;;4984267;28;20890;-82
2022/11/20 09:01:20;;;;;;;10.38;4.47;;;7.40;71.40;;;;;;4983305;28;20069;-85
2022/11/20 09:04:05;;;;;;;6.85;3.75;;;7.50;71.60;;;;;;4986200;28;20075;-84
2022/11/20 09:06:52;;;;;;;8.35;3.33;;;7.50;71.60;;;;;;4983825;28;20086;-79
2022/11/20 09:09:36;;;;;;;8.60;3.58;;;7.50;71.50;;;;;;4982280;28;20142;-79
2022/11/20 09:12:21;;;;;;;12.95;4.63;;;7.60;71.70;;;;;;4982442;28;20041;-79
2022/11/20 09:15:06;;;;;;;11.02;3.92;;;7.60;71.60;;;;;;4983416;28;20077;-79
2022/11/20 09:17:54;;;;;;;10.05;3.85;;;7.70;71.70;;;;;;4978993;28;20045;-79
2022/11/20 09:20:39;;;;;;;8.75;3.53;;;7.80;71.70;;;;;;4966582;28;20045;-86
2022/11/20 09:23:24;;;;;;;9.60;3.88;;;7.90;71.80;;;;;;4978774;28;20378;-85
2022/11/20 09:26:13;;;;;;;9.00;3.60;;;8.00;71.90;;;;;;4985780;28;20045;-84
2022/11/20 09:28:58;;;;;;;12.15;4.20;;;8.10;71.90;;;;;;4977792;28;20105;-82
2022/11/20 09:31:42;;;;;;;9.32;3.67;;;8.20;71.90;;;;;;4980724;28;20564;-84
2022/11/20 09:34:27;;;;;;;13.10;5.15;;;8.30;72.00;;;;;;4986460;28;20045;-89
2022/11/20 09:37:11;;;;;;;9.85;4.30;;;8.40;72.00;;;;;;4987226;28;20061;-91
2022/11/20 09:39:56;;;;;;;13.73;4.32;;;8.40;72.00;;;;;;4985100;28;20525;-88
2022/11/20 09:42:48;;;;;;;13.82;4.90;;;8.60;72.20;;;;;;4988717;28;20563;-86
2022/11/20 09:45:55;;;;;;;12.80;3.90;;;8.70;72.30;;;;;;4975440;28;20596;-85
2022/11/20 09:48:54;;;;;;;12.73;3.85;;;8.80;72.30;;;;;;4985213;28;20053;-85
2022/11/20 09:51:50;;;;;;;15.35;4.07;;;8.90;72.30;;;;;;4976163;28;20053;-79
2022/11/20 09:54:40;;;;;;;14.45;4.28;;;9.00;72.30;;;;;;4974332;28;20112;-80
2022/11/20 09:57:41;;;;;;;14.20;3.83;;;9.10;72.50;;;;;;4985174;28;20398;-80
2022/11/20 10:00:27;;;;;;;13.00;3.88;;;9.10;72.50;;;;;;4980464;28;20044;-79
2022/11/20 10:03:19;;;;;;;13.57;3.70;;;9.10;72.40;;;;;;4978340;28;20046;-81
2022/11/20 10:06:10;;;;;;;15.15;4.65;;;9.10;72.50;;;;;;4982037;28;20446;-87
2022/11/20 10:09:06;;;;;;;16.02;4.57;;;9.10;72.50;;;;;;4982890;28;20049;-78
2022/11/20 10:12:05;;;;;;;13.80;4.47;;;9.20;72.70;;;;;;4986378;28;20517;-82
2022/11/20 10:15:06;;;;;;;18.55;5.20;;;9.20;72.80;;;;;;4981442;28;20045;-80
2022/11/20 10:18:26;;;;;;;16.50;4.68;;;9.20;72.80;;;;;;4984336;28;20045;-81
2022/11/20 10:21:37;;;;;;;12.68;4.90;;;9.20;72.80;;;;;;4983664;28;20053;-79
2022/11/20 10:24:48;;;;;;;17.23;5.63;;;9.30;73.00;;;;;;4973832;28;20414;-81
2022/11/20 10:27:41;;;;;;;17.55;5.68;;;9.30;73.00;;;;;;4980753;28;20556;-80
2022/11/20 10:30:26;;;;;;;13.35;4.53;;;9.30;73.00;;;;;;4981022;28;20390;-79
2022/11/20 10:33:19;;;;;;;15.82;3.92;;;9.40;73.20;;;;;;4976837;28;20048;-80
2022/11/20 10:36:20;;;;;;;14.05;3.45;;;9.40;73.10;;;;;;4980980;28;20033;-80
2022/11/20 10:39:39;;;;;;;15.55;4.18;;;9.40;73.10;;;;;;4983439;28;20042;-83
2022/11/20 10:42:31;;;;;;;17.20;6.25;;;9.50;73.30;;;;;;4985212;28;20061;-86
2022/11/20 10:45:21;;;;;;;22.83;8.70;;;9.60;73.40;;;;;;4976184;28;20406;-87
2022/11/20 10:48:20;;;;;;;19.83;6.20;;;9.60;73.40;;;;;;4984799;28;20056;-86
2022/11/20 10:51:31;;;;;;;19.33;6.93;;;9.70;73.70;;;;;;4983603;28;20456;-86
2022/11/20 10:54:40;;;;;;;21.27;6.32;;;9.70;73.60;;;;;;4983962;28;20451;-87
2022/11/20 10:57:43;;;;;;;19.63;5.53;;;9.90;73.90;;;;;;4983975;28;20185;-85
2022/11/20 11:00:31;;;;;;;21.42;7.30;;;9.90;73.70;;;;;;4983917;28;20070;-86
2022/11/20 11:03:29;;;;;;;18.35;5.57;;;9.90;73.70;;;;;;4986398;28;20052;-87
2022/11/20 11:06:36;;;;;;;19.30;6.03;;;10.00;73.80;;;;;;4973954;28;20185;-89
2022/11/20 11:09:32;;;;;;;15.85;4.68;;;10.00;73.80;;;;;;4965977;28;20038;-81
2022/11/20 11:12:16;;;;;;;24.55;6.00;;;10.00;73.70;;;;;;4980675;28;20224;-83
2022/11/20 11:15:01;;;;;;;14.75;4.65;;;10.00;73.60;;;;;;4979339;28;20789;-84
2022/11/20 11:17:47;;;;;;;17.02;4.90;;;10.00;73.60;;;;;;4981650;28;20096;-81
2022/11/20 11:20:32;;;;;;;14.27;4.88;;;10.10;73.80;;;;;;4985272;28;20073;-89
2022/11/20 11:23:34;;;;;;;16.08;4.82;;;10.10;73.60;;;;;;4990609;28;20065;-87
2022/11/20 11:26:21;;;;;;;12.90;4.68;;;10.20;73.70;;;;;;4984593;28;20513;-86
2022/11/20 11:29:05;;;;;;;18.20;5.82;;;10.30;74.30;;;;;;4973239;28;20509;-87
2022/11/20 11:31:50;;;;;;;18.02;4.85;;;10.40;73.80;;;;;;4975403;28;20049;-86
2022/11/20 11:34:35;;;;;;;13.27;5.28;;;10.50;73.80;;;;;;4975644;28;20053;-83
2022/11/20 11:37:23;;;;;;;16.52;7.07;;;10.70;73.80;;;;;;4988564;28;20459;-84
2022/11/20 11:40:12;;;;;;;15.55;6.70;;;10.90;73.70;;;;;;4986617;28;20574;-82
2022/11/20 11:42:59;;;;;;;14.57;5.35;;;11.10;73.60;;;;;;4982749;28;20140;-81
2022/11/20 11:45:53;;;;;;;19.20;5.55;;;11.30;73.40;;;;;;4975719;28;20615;-79
2022/11/20 11:48:37;;;;;;;20.90;4.72;;;11.50;73.30;;;;;;4970268;28;20533;-80
2022/11/20 11:51:21;;;;;;;22.55;5.30;;;11.70;73.20;;;;;;4984144;28;20136;-80
2022/11/20 11:54:19;;;;;;;14.10;4.10;;;11.80;73.00;;;;;;4982663;28;20113;-81
2022/11/20 11:57:39;;;;;;;20.10;5.50;;;11.90;72.90;;;;;;4982722;28;20521;-81
2022/11/20 12:00:23;;;;;;;11.57;4.72;;;12.00;72.90;;;;;;4956317;28;20390;-80
2022/11/20 12:03:29;;;;;;;18.30;4.78;;;12.00;72.80;;;;;;4983955;28;20136;-81
2022/11/20 12:06:16;;;;;;;15.82;3.47;;;11.90;72.60;;;;;;4982591;28;20045;-79
2022/11/20 12:09:07;;;;;;;10.95;4.93;;;11.90;72.70;;;;;;4986211;28;20028;-78
2022/11/20 12:12:20;;;;;;;10.82;3.30;;;11.80;72.70;;;;;;4984138;28;20044;-80
2022/11/20 12:15:09;;;;;;;14.32;3.55;;;11.80;72.80;;;;;;4979873;28;20134;-80
2022/11/20 12:17:54;;;;;;;16.17;3.83;;;11.70;72.80;;;;;;4982726;28;20085;-79
2022/11/20 12:20:44;;;;;;;8.35;3.67;;;11.70;73.00;;;;;;4985675;28;20046;-80
2022/11/20 12:23:46;;;;;;;12.48;3.60;;;11.80;73.10;;;;;;4973741;28;20053;-80
2022/11/20 12:26:51;;;;;;;15.20;4.53;;;11.80;73.00;;;;;;4984717;28;20388;-81
2022/11/20 12:29:36;;;;;;;13.20;2.85;;;11.90;72.90;;;;;;4985005;28;20119;-80
2022/11/20 12:32:39;;;;;;;12.73;3.75;;;12.00;72.80;;;;;;4982986;28;20042;-81
2022/11/20 12:35:29;;;;;;;8.90;2.90;;;12.10;72.80;;;;;;4982716;28;20045;-80
2022/11/20 12:38:51;;;;;;;8.65;2.33;;;12.30;72.80;;;;;;4986539;28;20109;-80
2022/11/20 12:45:25;;;;;;;13.88;3.25;;;12.50;72.50;;;;;;4980642;28;20049;-81
2022/11/20 12:48:12;;;;;;;9.50;2.33;;;12.50;72.30;;;;;;4986979;28;20112;-83
2022/11/20 12:51:18;;;;;;;7.63;2.15;;;12.50;72.20;;;;;;4987138;28;20166;-86
2022/11/20 12:54:24;;;;;;;7.50;2.08;;;12.50;72.20;;;;;;4983294;28;20045;-83
2022/11/20 12:57:27;;;;;;;5.75;2.33;;;12.50;72.10;;;;;;4988656;28;20126;-82
2022/11/20 13:00:25;;;;;;;10.10;2.78;;;12.50;72.20;;;;;;4982738;28;20035;-83
2022/11/20 13:03:47;;;;;;;12.60;3.08;;;12.60;72.30;;;;;;4991070;28;20057;-83
2022/11/20 13:06:32;;;;;;;8.90;2.45;;;12.60;72.20;;;;;;5003765;28;20033;-83
2022/11/20 13:09:21;;;;;;;5.60;1.65;;;12.60;72.10;;;;;;4988397;28;20434;-81
2022/11/20 13:12:12;;;;;;;7.90;1.77;;;12.70;71.90;;;;;;4985897;28;20100;-84
2022/11/20 13:15:02;;;;;;;5.68;1.95;;;12.80;71.80;;;;;;4978199;28;20481;-83
2022/11/20 13:17:57;;;;;;;6.35;1.42;;;12.80;71.70;;;;;;4984216;28;20144;-82
2022/11/20 13:20:46;;;;;;;7.60;2.40;;;12.80;72.20;;;;;;4981987;28;20590;-84
2022/11/20 13:23:30;;;;;;;8.50;2.25;;;12.80;71.60;;;;;;4983080;28;20097;-84
2022/11/20 13:26:22;;;;;;;5.40;1.63;;;12.70;71.40;;;;;;4976078;28;20090;-82
2022/11/20 13:29:17;;;;;;;10.35;2.17;;;12.70;71.40;;;;;;4986728;28;20049;-82
2022/11/20 13:32:12;;;;;;;7.72;1.60;;;12.70;71.30;;;;;;4984193;28;20073;-82
2022/11/20 13:35:00;;;;;;;10.90;1.85;;;12.60;71.20;;;;;;4989938;28;20489;-82
2022/11/20 13:37:45;;;;;;;7.60;2.03;;;12.60;71.20;;;;;;4997245;28;20148;-84
2022/11/20 13:40:30;;;;;;;5.13;1.60;;;12.50;70.70;;;;;;4962836;28;20448;-82
2022/11/20 13:43:17;;;;;;;8.27;2.05;;;12.40;71.00;;;;;;4994772;28;20406;-82
2022/11/20 13:46:08;;;;;;;8.02;2.58;;;12.40;71.10;;;;;;4989894;28;20041;-81
2022/11/20 13:48:54;;;;;;;7.05;1.73;;;12.30;71.00;;;;;;4988779;28;20069;-81
2022/11/20 13:51:46;;;;;;;5.55;1.70;;;12.30;71.00;;;;;;4976526;28;20049;-81
2022/11/20 13:54:52;;;;;;;4.30;1.25;;;12.20;70.90;;;;;;4973872;28;20053;-82
2022/11/20 13:58:01;;;;;;;6.78;2.05;;;12.20;70.90;;;;;;4976416;28;20049;-82
2022/11/20 14:01:10;;;;;;;6.18;2.03;;;12.20;71.10;;;;;;4978300;28;20041;-82
2022/11/20 14:03:55;;;;;;;8.68;1.52;;;12.10;71.00;;;;;;4979656;28;20459;-81
2022/11/20 14:06:43;;;;;;;5.22;1.60;;;12.10;71.10;;;;;;4979576;28;20064;-81
2022/11/20 14:09:34;;;;;;;8.43;2.47;;;12.10;71.00;;;;;;4981445;28;20049;-83
2022/11/20 14:12:22;;;;;;;5.47;1.98;;;12.10;71.00;;;;;;4985829;28;20037;-89
2022/11/20 14:15:33;;;;;;;7.90;1.63;;;12.00;70.80;;;;;;4966558;28;20034;-87
2022/11/20 14:18:21;;;;;;;7.97;2.35;;;12.00;70.70;;;;;;4992146;28;20069;-92
2022/11/20 14:21:09;;;;;;;5.63;1.67;;;12.00;70.80;;;;;;4985926;28;20147;-92
2022/11/20 14:24:04;;;;;;;3.65;1.15;;;11.90;70.60;;;;;;4989116;28;20060;-87
2022/11/20 14:26:50;;;;;;;5.07;1.33;;;11.90;70.70;;;;;;4968357;28;20041;-80
2022/11/20 14:29:37;;;;;;;9.55;1.63;;;11.80;70.60;;;;;;4984679;28;20045;-93
2022/11/20 14:32:27;;;;;;;5.63;1.63;;;11.80;70.70;;;;;;4984374;28;20044;-86
2022/11/20 14:35:45;;;;;;;8.15;1.70;;;11.70;70.50;;;;;;4975518;28;20117;-85
2022/11/20 14:38:32;;;;;;;4.68;1.50;;;11.70;70.60;;;;;;4978475;28;20117;-86
2022/11/20 14:41:24;;;;;;;6.60;1.40;;;11.70;70.70;;;;;;4983019;28;20045;-87
2022/11/20 14:44:09;;;;;;;6.53;1.30;;;11.70;70.70;;;;;;4984067;28;20552;-92
2022/11/20 14:46:55;;;;;;;12.70;2.03;;;11.60;70.50;;;;;;4979196;28;20117;-87
2022/11/20 14:49:41;;;;;;;9.23;2.08;;;11.60;70.60;;;;;;4977291;28;20149;-83
2022/11/20 14:52:27;;;;;;;7.40;2.25;;;11.70;71.00;;;;;;4978286;28;20057;-92
2022/11/20 14:55:24;;;;;;;7.38;2.00;;;11.80;71.40;;;;;;4970622;28;20084;-90
2022/11/20 14:58:31;;;;;;;11.23;2.08;;;12.00;71.70;;;;;;4980479;28;20046;-89